sensor_id;sensor_type;location;lat;lon;timestamp;pressure;altitude;pressure_sealevel;temperature;humidity
64711;BME280;51139;45.626;6.850;2023-04-23T00:01:43;81589.88;;;6.18;79.70
64711;BME280;51139;45.626;6.850;2023-04-23T00:04:10;81589.00;;;5.90;82.65
64711;BME280;51139;45.626;6.850;2023-04-23T00:06:36;81594.56;;;5.94;83.44
64711;BME280;51139;45.626;6.850;2023-04-23T00:09:02;81588.81;;;5.88;83.29
64711;BME280;51139;45.626;6.850;2023-04-23T00:11:28;81586.78;;;5.78;83.84
64711;BME280;51139;45.626;6.850;2023-04-23T00:13:54;81587.03;;;5.90;83.40
64711;BME280;51139;45.626;6.850;2023-04-23T00:16:19;81585.91;;;5.76;84.10
64711;BME280;51139;45.626;6.850;2023-04-23T00:18:46;81588.84;;;5.80;85.73
64711;BME280;51139;45.626;6.850;2023-04-23T00:21:12;81576.53;;;5.90;85.28
64711;BME280;51139;45.626;6.850;2023-04-23T00:23:38;81585.88;;;5.83;84.14
64711;BME280;51139;45.626;6.850;2023-04-23T00:26:04;81583.03;;;6.22;80.30
64711;BME280;51139;45.626;6.850;2023-04-23T00:28:30;81588.88;;;6.38;80.66
64711;BME280;51139;45.626;6.850;2023-04-23T00:30:55;81585.41;;;6.36;80.22
64711;BME280;51139;45.626;6.850;2023-04-23T00:33:21;81590.22;;;6.22;81.51
64711;BME280;51139;45.626;6.850;2023-04-23T00:35:46;81590.63;;;6.10;81.70
64711;BME280;51139;45.626;6.850;2023-04-23T00:38:11;81596.72;;;6.21;81.80
64711;BME280;51139;45.626;6.850;2023-04-23T00:40:37;81588.13;;;6.46;79.45
64711;BME280;51139;45.626;6.850;2023-04-23T00:43:03;81588.50;;;6.17;82.23
64711;BME280;51139;45.626;6.850;2023-04-23T00:45:28;81590.00;;;6.53;78.93
64711;BME280;51139;45.626;6.850;2023-04-23T00:47:55;81580.63;;;6.42;79.75
64711;BME280;51139;45.626;6.850;2023-04-23T00:50:20;81577.50;;;6.10;82.87
64711;BME280;51139;45.626;6.850;2023-04-23T00:52:46;81576.63;;;6.33;83.06
64711;BME280;51139;45.626;6.850;2023-04-23T00:55:11;81573.50;;;6.02;83.71
64711;BME280;51139;45.626;6.850;2023-04-23T00:57:37;81568.69;;;5.82;86.47
64711;BME280;51139;45.626;6.850;2023-04-23T01:00:06;81570.28;;;5.78;85.91
64711;BME280;51139;45.626;6.850;2023-04-23T01:02:33;81564.13;;;5.83;85.61
64711;BME280;51139;45.626;6.850;2023-04-23T01:05:01;81572.47;;;5.64;87.60
64711;BME280;51139;45.626;6.850;2023-04-23T01:07:28;81558.38;;;5.77;87.33
64711;BME280;51139;45.626;6.850;2023-04-23T01:09:54;81562.53;;;5.88;86.85
64711;BME280;51139;45.626;6.850;2023-04-23T01:12:20;81567.78;;;5.88;87.27
64711;BME280;51139;45.626;6.850;2023-04-23T01:14:45;81562.47;;;5.95;86.59
64711;BME280;51139;45.626;6.850;2023-04-23T01:17:11;81556.53;;;5.95;86.31
64711;BME280;51139;45.626;6.850;2023-04-23T01:19:37;81551.22;;;5.77;87.28
64711;BME280;51139;45.626;6.850;2023-04-23T01:22:10;81547.88;;;5.77;86.45
64711;BME280;51139;45.626;6.850;2023-04-23T01:24:36;81549.22;;;5.86;86.83
64711;BME280;51139;45.626;6.850;2023-04-23T01:27:02;81547.13;;;5.84;85.98
64711;BME280;51139;45.626;6.850;2023-04-23T01:29:28;81543.44;;;5.87;86.42
64711;BME280;51139;45.626;6.850;2023-04-23T01:31:55;81547.84;;;6.10;86.39
64711;BME280;51139;45.626;6.850;2023-04-23T01:34:21;81542.03;;;5.86;88.07
64711;BME280;51139;45.626;6.850;2023-04-23T01:36:46;81541.41;;;5.70;89.18
64711;BME280;51139;45.626;6.850;2023-04-23T01:39:13;81534.59;;;5.67;88.76
64711;BME280;51139;45.626;6.850;2023-04-23T01:41:39;81534.72;;;5.77;86.98
64711;BME280;51139;45.626;6.850;2023-04-23T01:44:05;81542.81;;;6.04;85.45
64711;BME280;51139;45.626;6.850;2023-04-23T01:46:30;81543.97;;;5.86;86.44
64711;BME280;51139;45.626;6.850;2023-04-23T01:48:56;81538.50;;;5.91;87.60
64711;BME280;51139;45.626;6.850;2023-04-23T01:51:21;81541.94;;;6.52;82.64
64711;BME280;51139;45.626;6.850;2023-04-23T01:53:49;81550.19;;;6.74;79.74
64711;BME280;51139;45.626;6.850;2023-04-23T01:56:15;81554.44;;;6.87;78.36
64711;BME280;51139;45.626;6.850;2023-04-23T01:58:40;81541.47;;;6.21;82.41
64711;BME280;51139;45.626;6.850;2023-04-23T02:01:06;81546.59;;;5.52;91.25
64711;BME280;51139;45.626;6.850;2023-04-23T02:03:31;81528.81;;;6.02;91.37
64711;BME280;51139;45.626;6.850;2023-04-23T02:05:58;81534.53;;;5.82;92.28
64711;BME280;51139;45.626;6.850;2023-04-23T02:08:24;81538.69;;;6.19;91.15
64711;BME280;51139;45.626;6.850;2023-04-23T02:10:50;81540.13;;;6.37;89.53
64711;BME280;51139;45.626;6.850;2023-04-23T02:13:17;81542.72;;;6.63;86.65
64711;BME280;51139;45.626;6.850;2023-04-23T02:15:42;81547.69;;;5.82;92.72
64711;BME280;51139;45.626;6.850;2023-04-23T02:18:08;81562.69;;;5.57;100.00
64711;BME280;51139;45.626;6.850;2023-04-23T02:20:35;81569.50;;;5.19;100.00
64711;BME280;51139;45.626;6.850;2023-04-23T02:23:03;81562.97;;;4.79;100.00
64711;BME280;51139;45.626;6.850;2023-04-23T02:25:28;81577.13;;;4.91;100.00
64711;BME280;51139;45.626;6.850;2023-04-23T02:27:54;81581.88;;;4.70;100.00
64711;BME280;51139;45.626;6.850;2023-04-23T02:30:21;81573.84;;;5.24;100.00
64711;BME280;51139;45.626;6.850;2023-04-23T02:32:47;81563.00;;;5.20;100.00
64711;BME280;51139;45.626;6.850;2023-04-23T02:35:12;81563.09;;;5.45;100.00
64711;BME280;51139;45.626;6.850;2023-04-23T02:37:38;81563.00;;;5.28;100.00
64711;BME280;51139;45.626;6.850;2023-04-23T02:40:04;81559.88;;;5.21;100.00
64711;BME280;51139;45.626;6.850;2023-04-23T02:42:30;81558.56;;;5.46;100.00
64711;BME280;51139;45.626;6.850;2023-04-23T02:44:56;81561.34;;;5.48;100.00
64711;BME280;51139;45.626;6.850;2023-04-23T02:47:21;81560.00;;;5.31;100.00
64711;BME280;51139;45.626;6.850;2023-04-23T02:49:46;81549.03;;;5.58;100.00
64711;BME280;51139;45.626;6.850;2023-04-23T02:52:12;81554.66;;;5.88;100.00
64711;BME280;51139;45.626;6.850;2023-04-23T02:54:37;81554.75;;;5.97;100.00
64711;BME280;51139;45.626;6.850;2023-04-23T02:57:04;81557.09;;;6.19;99.08
64711;BME280;51139;45.626;6.850;2023-04-23T02:59:29;81553.72;;;6.26;97.36
64711;BME280;51139;45.626;6.850;2023-04-23T03:01:55;81554.50;;;6.11;96.21
64711;BME280;51139;45.626;6.850;2023-04-23T03:04:20;81558.44;;;6.27;96.13
64711;BME280;51139;45.626;6.850;2023-04-23T03:06:45;81565.22;;;6.56;94.34
64711;BME280;51139;45.626;6.850;2023-04-23T03:09:12;81569.53;;;6.69;93.09
64711;BME280;51139;45.626;6.850;2023-04-23T03:11:37;81565.47;;;6.50;98.99
64711;BME280;51139;45.626;6.850;2023-04-23T03:14:02;81569.94;;;6.15;97.38
64711;BME280;51139;45.626;6.850;2023-04-23T03:16:28;81560.50;;;5.78;99.60
64711;BME280;51139;45.626;6.850;2023-04-23T03:18:56;81556.06;;;6.14;100.00
64711;BME280;51139;45.626;6.850;2023-04-23T03:21:21;81552.44;;;5.76;100.00
64711;BME280;51139;45.626;6.850;2023-04-23T03:23:47;81556.59;;;5.46;100.00
64711;BME280;51139;45.626;6.850;2023-04-23T03:26:12;81562.84;;;5.59;100.00
64711;BME280;51139;45.626;6.850;2023-04-23T03:28:37;81559.22;;;5.05;100.00
64711;BME280;51139;45.626;6.850;2023-04-23T03:31:03;81562.38;;;5.04;100.00
64711;BME280;51139;45.626;6.850;2023-04-23T03:33:28;81558.81;;;4.68;100.00
64711;BME280;51139;45.626;6.850;2023-04-23T03:35:54;81555.06;;;4.87;100.00
64711;BME280;51139;45.626;6.850;2023-04-23T03:38:19;81548.81;;;5.23;100.00
64711;BME280;51139;45.626;6.850;2023-04-23T03:40:45;81555.81;;;5.28;100.00
64711;BME280;51139;45.626;6.850;2023-04-23T03:43:10;81561.75;;;5.36;100.00
64711;BME280;51139;45.626;6.850;2023-04-23T03:45:36;81556.38;;;5.60;100.00
64711;BME280;51139;45.626;6.850;2023-04-23T03:48:01;81558.69;;;5.89;100.00
64711;BME280;51139;45.626;6.850;2023-04-23T03:50:26;81555.28;;;6.29;100.00
64711;BME280;51139;45.626;6.850;2023-04-23T03:52:52;81545.31;;;6.27;100.00
64711;BME280;51139;45.626;6.850;2023-04-23T03:55:17;81542.31;;;6.49;100.00
64711;BME280;51139;45.626;6.850;2023-04-23T03:57:44;81531.81;;;5.98;100.00
64711;BME280;51139;45.626;6.850;2023-04-23T04:00:10;81535.63;;;6.05;100.00
64711;BME280;51139;45.626;6.850;2023-04-23T04:02:36;81536.09;;;5.52;100.00
64711;BME280;51139;45.626;6.850;2023-04-23T04:05:03;81540.69;;;6.10;100.00
64711;BME280;51139;45.626;6.850;2023-04-23T04:07:28;81540.78;;;6.20;100.00
64711;BME280;51139;45.626;6.850;2023-04-23T04:09:54;81534.63;;;6.25;100.00
64711;BME280;51139;45.626;6.850;2023-04-23T04:12:19;81532.56;;;5.91;100.00
64711;BME280;51139;45.626;6.850;2023-04-23T04:14:44;81539.22;;;4.69;100.00
64711;BME280;51139;45.626;6.850;2023-04-23T04:17:10;81540.09;;;4.64;100.00
64711;BME280;51139;45.626;6.850;2023-04-23T04:19:36;81534.09;;;4.87;100.00
64711;BME280;51139;45.626;6.850;2023-04-23T04:22:02;81532.84;;;4.88;100.00
64711;BME280;51139;45.626;6.850;2023-04-23T04:24:28;81526.47;;;5.06;100.00
64711;BME280;51139;45.626;6.850;2023-04-23T04:26:59;81534.03;;;5.43;100.00
64711;BME280;51139;45.626;6.850;2023-04-23T04:29:26;81517.75;;;5.70;100.00
64711;BME280;51139;45.626;6.850;2023-04-23T04:31:53;81521.75;;;5.79;100.00
64711;BME280;51139;45.626;6.850;2023-04-23T04:34:18;81525.25;;;5.81;100.00
64711;BME280;51139;45.626;6.850;2023-04-23T04:36:44;81518.22;;;5.84;100.00
64711;BME280;51139;45.626;6.850;2023-04-23T04:39:09;81517.75;;;5.70;100.00
64711;BME280;51139;45.626;6.850;2023-04-23T04:41:37;81524.69;;;5.17;100.00
64711;BME280;51139;45.626;6.850;2023-04-23T04:44:03;81527.25;;;4.91;100.00
64711;BME280;51139;45.626;6.850;2023-04-23T04:46:28;81534.97;;;4.89;100.00
64711;BME280;51139;45.626;6.850;2023-04-23T04:48:56;81544.97;;;4.75;100.00
64711;BME280;51139;45.626;6.850;2023-04-23T04:51:21;81548.31;;;5.24;100.00
64711;BME280;51139;45.626;6.850;2023-04-23T04:53:47;81548.53;;;5.11;100.00
64711;BME280;51139;45.626;6.850;2023-04-23T04:56:12;81547.97;;;5.20;100.00
64711;BME280;51139;45.626;6.850;2023-04-23T04:58:37;81552.72;;;5.55;100.00
64711;BME280;51139;45.626;6.850;2023-04-23T05:01:03;81542.25;;;5.47;100.00
64711;BME280;51139;45.626;6.850;2023-04-23T05:03:29;81547.53;;;4.99;100.00
64711;BME280;51139;45.626;6.850;2023-04-23T05:05:55;81540.06;;;4.79;100.00
64711;BME280;51139;45.626;6.850;2023-04-23T05:08:21;81541.41;;;4.96;100.00
64711;BME280;51139;45.626;6.850;2023-04-23T05:10:46;81538.81;;;4.80;100.00
64711;BME280;51139;45.626;6.850;2023-04-23T05:13:14;81541.59;;;4.90;100.00
64711;BME280;51139;45.626;6.850;2023-04-23T05:15:40;81540.34;;;5.40;100.00
64711;BME280;51139;45.626;6.850;2023-04-23T05:18:05;81534.34;;;5.55;100.00
64711;BME280;51139;45.626;6.850;2023-04-23T05:20:33;81536.84;;;5.78;100.00
64711;BME280;51139;45.626;6.850;2023-04-23T05:22:58;81533.63;;;6.13;100.00
64711;BME280;51139;45.626;6.850;2023-04-23T05:25:24;81530.84;;;6.11;100.00
64711;BME280;51139;45.626;6.850;2023-04-23T05:27:49;81527.50;;;5.85;100.00
64711;BME280;51139;45.626;6.850;2023-04-23T05:30:15;81528.63;;;5.99;100.00
64711;BME280;51139;45.626;6.850;2023-04-23T05:32:40;81524.84;;;6.18;100.00
64711;BME280;51139;45.626;6.850;2023-04-23T05:35:06;81527.06;;;5.96;100.00
64711;BME280;51139;45.626;6.850;2023-04-23T05:37:31;81524.28;;;5.94;100.00
64711;BME280;51139;45.626;6.850;2023-04-23T05:39:57;81532.00;;;6.25;100.00
64711;BME280;51139;45.626;6.850;2023-04-23T05:42:22;81539.00;;;6.48;100.00
64711;BME280;51139;45.626;6.850;2023-04-23T05:44:48;81533.03;;;6.48;100.00
64711;BME280;51139;45.626;6.850;2023-04-23T05:47:13;81529.69;;;6.30;100.00
64711;BME280;51139;45.626;6.850;2023-04-23T05:49:39;81527.03;;;5.46;100.00
64711;BME280;51139;45.626;6.850;2023-04-23T05:52:04;81531.16;;;4.67;100.00
64711;BME280;51139;45.626;6.850;2023-04-23T05:54:30;81530.78;;;4.86;100.00
64711;BME280;51139;45.626;6.850;2023-04-23T05:56:56;81532.56;;;4.68;100.00
64711;BME280;51139;45.626;6.850;2023-04-23T05:59:21;81529.78;;;5.15;100.00
64711;BME280;51139;45.626;6.850;2023-04-23T06:01:47;81525.88;;;5.31;100.00
64711;BME280;51139;45.626;6.850;2023-04-23T06:04:17;81527.53;;;5.11;100.00
64711;BME280;51139;45.626;6.850;2023-04-23T06:06:42;81522.41;;;4.64;100.00
64711;BME280;51139;45.626;6.850;2023-04-23T06:09:08;81524.34;;;5.20;100.00
64711;BME280;51139;45.626;6.850;2023-04-23T06:11:34;81516.38;;;5.36;100.00
64711;BME280;51139;45.626;6.850;2023-04-23T06:14:03;81516.63;;;5.55;100.00
64711;BME280;51139;45.626;6.850;2023-04-23T06:16:29;81523.44;;;4.77;100.00
64711;BME280;51139;45.626;6.850;2023-04-23T06:18:54;81515.72;;;4.79;100.00
64711;BME280;51139;45.626;6.850;2023-04-23T06:21:23;81521.53;;;5.18;100.00
64711;BME280;51139;45.626;6.850;2023-04-23T06:23:50;81517.44;;;5.66;100.00
64711;BME280;51139;45.626;6.850;2023-04-23T06:26:15;81510.22;;;5.99;100.00
64711;BME280;51139;45.626;6.850;2023-04-23T06:28:41;81513.00;;;5.51;100.00
64711;BME280;51139;45.626;6.850;2023-04-23T06:31:07;81521.84;;;5.30;100.00
64711;BME280;51139;45.626;6.850;2023-04-23T06:33:33;81523.03;;;4.96;100.00
64711;BME280;51139;45.626;6.850;2023-04-23T06:36:00;81521.16;;;5.30;100.00
64711;BME280;51139;45.626;6.850;2023-04-23T06:38:26;81514.28;;;5.67;100.00
64711;BME280;51139;45.626;6.850;2023-04-23T06:40:51;81513.13;;;5.86;100.00
64711;BME280;51139;45.626;6.850;2023-04-23T06:43:17;81513.03;;;5.76;100.00
64711;BME280;51139;45.626;6.850;2023-04-23T06:45:42;81515.59;;;5.84;100.00
64711;BME280;51139;45.626;6.850;2023-04-23T06:48:07;81522.78;;;5.83;100.00
64711;BME280;51139;45.626;6.850;2023-04-23T06:50:36;81526.56;;;6.23;100.00
64711;BME280;51139;45.626;6.850;2023-04-23T06:53:01;81517.75;;;6.28;100.00
64711;BME280;51139;45.626;6.850;2023-04-23T06:55:27;81520.28;;;6.19;100.00
64711;BME280;51139;45.626;6.850;2023-04-23T06:57:53;81519.97;;;6.57;98.06
64711;BME280;51139;45.626;6.850;2023-04-23T07:00:20;81516.81;;;6.94;96.27
64711;BME280;51139;45.626;6.850;2023-04-23T07:02:46;81522.16;;;6.86;95.12
64711;BME280;51139;45.626;6.850;2023-04-23T07:05:11;81515.66;;;6.27;95.39
64711;BME280;51139;45.626;6.850;2023-04-23T07:07:37;81513.25;;;6.21;96.12
64711;BME280;51139;45.626;6.850;2023-04-23T07:10:03;81510.94;;;6.00;100.00
64711;BME280;51139;45.626;6.850;2023-04-23T07:12:29;81501.91;;;6.11;100.00
64711;BME280;51139;45.626;6.850;2023-04-23T07:14:55;81504.47;;;6.01;100.00
64711;BME280;51139;45.626;6.850;2023-04-23T07:17:20;81501.72;;;6.17;100.00
64711;BME280;51139;45.626;6.850;2023-04-23T07:19:46;81495.91;;;5.93;100.00
64711;BME280;51139;45.626;6.850;2023-04-23T07:22:12;81495.50;;;6.47;100.00
64711;BME280;51139;45.626;6.850;2023-04-23T07:24:37;81494.44;;;6.07;97.49
64711;BME280;51139;45.626;6.850;2023-04-23T07:27:03;81499.78;;;5.92;94.76
64711;BME280;51139;45.626;6.850;2023-04-23T07:29:29;81490.66;;;5.93;93.36
64711;BME280;51139;45.626;6.850;2023-04-23T07:31:54;81500.38;;;6.08;100.00
64711;BME280;51139;45.626;6.850;2023-04-23T07:34:20;81495.59;;;6.14;97.28
64711;BME280;51139;45.626;6.850;2023-04-23T07:36:45;81502.84;;;6.49;100.00
64711;BME280;51139;45.626;6.850;2023-04-23T07:39:11;81502.84;;;6.06;100.00
64711;BME280;51139;45.626;6.850;2023-04-23T07:41:36;81507.59;;;6.68;99.11
64711;BME280;51139;45.626;6.850;2023-04-23T07:44:02;81503.88;;;6.71;98.17
64711;BME280;51139;45.626;6.850;2023-04-23T07:46:28;81504.56;;;6.54;96.19
64711;BME280;51139;45.626;6.850;2023-04-23T07:48:53;81501.31;;;7.16;100.00
64711;BME280;51139;45.626;6.850;2023-04-23T07:51:19;81505.03;;;6.60;100.00
64711;BME280;51139;45.626;6.850;2023-04-23T07:53:46;81513.88;;;6.72;100.00
64711;BME280;51139;45.626;6.850;2023-04-23T07:56:15;81505.91;;;6.80;100.00
64711;BME280;51139;45.626;6.850;2023-04-23T07:58:41;81498.91;;;6.57;94.80
64711;BME280;51139;45.626;6.850;2023-04-23T08:01:06;81502.63;;;6.72;97.96
64711;BME280;51139;45.626;6.850;2023-04-23T08:03:33;81509.28;;;6.91;100.00
64711;BME280;51139;45.626;6.850;2023-04-23T08:05:58;81504.44;;;7.05;98.97
64711;BME280;51139;45.626;6.850;2023-04-23T08:08:23;81507.84;;;6.80;98.17
64711;BME280;51139;45.626;6.850;2023-04-23T08:10:49;81509.59;;;6.95;99.04
64711;BME280;51139;45.626;6.850;2023-04-23T08:13:15;81506.91;;;7.03;100.00
64711;BME280;51139;45.626;6.850;2023-04-23T08:15:40;81506.63;;;7.43;100.00
64711;BME280;51139;45.626;6.850;2023-04-23T08:18:07;81508.91;;;6.94;95.87
64711;BME280;51139;45.626;6.850;2023-04-23T08:20:33;81511.44;;;6.49;88.19
64711;BME280;51139;45.626;6.850;2023-04-23T08:22:58;81508.00;;;6.64;93.49
64711;BME280;51139;45.626;6.850;2023-04-23T08:25:24;81508.66;;;7.35;90.64
64711;BME280;51139;45.626;6.850;2023-04-23T08:27:49;81513.47;;;7.74;86.50
64711;BME280;51139;45.626;6.850;2023-04-23T08:30:15;81517.44;;;7.93;85.93
64711;BME280;51139;45.626;6.850;2023-04-23T08:32:40;81507.91;;;7.97;85.33
64711;BME280;51139;45.626;6.850;2023-04-23T08:35:06;81502.78;;;8.09;86.20
64711;BME280;51139;45.626;6.850;2023-04-23T08:37:35;81503.97;;;8.26;80.60
64711;BME280;51139;45.626;6.850;2023-04-23T08:40:00;81503.53;;;8.20;72.61
64711;BME280;51139;45.626;6.850;2023-04-23T08:44:56;81483.28;;;8.22;77.01
64711;BME280;51139;45.626;6.850;2023-04-23T08:47:23;81490.13;;;8.45;87.65
64711;BME280;51139;45.626;6.850;2023-04-23T08:49:53;81491.34;;;8.81;84.99
64711;BME280;51139;45.626;6.850;2023-04-23T08:52:22;81490.94;;;8.85;76.66
64711;BME280;51139;45.626;6.850;2023-04-23T08:54:51;81487.38;;;9.29;81.63
64711;BME280;51139;45.626;6.850;2023-04-23T08:57:18;81496.72;;;8.54;84.88
64711;BME280;51139;45.626;6.850;2023-04-23T08:59:45;81488.31;;;8.95;80.03
64711;BME280;51139;45.626;6.850;2023-04-23T09:02:11;81485.94;;;8.32;69.68
64711;BME280;51139;45.626;6.850;2023-04-23T09:04:38;81470.41;;;9.32;72.74
64711;BME280;51139;45.626;6.850;2023-04-23T09:07:05;81478.69;;;9.78;73.46
64711;BME280;51139;45.626;6.850;2023-04-23T09:09:36;81470.66;;;9.17;70.71
64711;BME280;51139;45.626;6.850;2023-04-23T09:12:04;81476.72;;;8.60;84.74
64711;BME280;51139;45.626;6.850;2023-04-23T09:14:30;81469.41;;;9.28;84.25
64711;BME280;51139;45.626;6.850;2023-04-23T09:16:55;81463.53;;;9.59;77.08
64711;BME280;51139;45.626;6.850;2023-04-23T09:19:21;81466.47;;;10.14;77.78
64711;BME280;51139;45.626;6.850;2023-04-23T09:21:47;81466.25;;;10.00;76.28
64711;BME280;51139;45.626;6.850;2023-04-23T09:24:13;81467.22;;;10.46;67.84
64711;BME280;51139;45.626;6.850;2023-04-23T09:26:46;81473.03;;;9.32;68.76
64711;BME280;51139;45.626;6.850;2023-04-23T09:29:19;81469.34;;;9.67;70.55
64711;BME280;51139;45.626;6.850;2023-04-23T09:31:48;81478.22;;;10.74;68.44
64711;BME280;51139;45.626;6.850;2023-04-23T09:34:15;81472.22;;;11.05;67.08
64711;BME280;51139;45.626;6.850;2023-04-23T09:36:45;81464.78;;;11.14;67.71
64711;BME280;51139;45.626;6.850;2023-04-23T09:39:14;81461.31;;;10.58;60.24
64711;BME280;51139;45.626;6.850;2023-04-23T09:41:41;81463.31;;;10.47;61.69
64711;BME280;51139;45.626;6.850;2023-04-23T09:44:06;81461.16;;;10.87;60.84
64711;BME280;51139;45.626;6.850;2023-04-23T09:46:40;81462.97;;;10.63;65.07
64711;BME280;51139;45.626;6.850;2023-04-23T09:49:07;81458.97;;;11.27;64.21
64711;BME280;51139;45.626;6.850;2023-04-23T09:54:18;81459.34;;;11.12;61.64
64711;BME280;51139;45.626;6.850;2023-04-23T09:56:52;81462.72;;;11.02;61.50
64711;BME280;51139;45.626;6.850;2023-04-23T09:59:28;81461.41;;;11.13;67.22
64711;BME280;51139;45.626;6.850;2023-04-23T10:01:54;81453.84;;;11.19;64.91
64711;BME280;51139;45.626;6.850;2023-04-23T10:04:21;81451.41;;;11.12;63.76
64711;BME280;51139;45.626;6.850;2023-04-23T10:06:48;81460.50;;;11.08;56.75
64711;BME280;51139;45.626;6.850;2023-04-23T10:09:17;81450.31;;;11.27;59.19
64711;BME280;51139;45.626;6.850;2023-04-23T10:11:48;81454.41;;;10.74;63.03
64711;BME280;51139;45.626;6.850;2023-04-23T10:14:14;81459.59;;;11.37;54.02
64711;BME280;51139;45.626;6.850;2023-04-23T10:16:41;81456.69;;;11.67;57.64
64711;BME280;51139;45.626;6.850;2023-04-23T10:19:08;81469.50;;;11.71;58.78
64711;BME280;51139;45.626;6.850;2023-04-23T10:21:38;81453.28;;;11.21;52.47
64711;BME280;51139;45.626;6.850;2023-04-23T10:24:04;81446.94;;;11.81;57.34
64711;BME280;51139;45.626;6.850;2023-04-23T10:26:30;81446.59;;;12.33;53.98
64711;BME280;51139;45.626;6.850;2023-04-23T10:28:59;81445.59;;;12.74;53.09
64711;BME280;51139;45.626;6.850;2023-04-23T10:31:25;81448.47;;;12.66;56.17
64711;BME280;51139;45.626;6.850;2023-04-23T10:33:53;81440.84;;;12.96;46.77
64711;BME280;51139;45.626;6.850;2023-04-23T10:36:22;81444.50;;;12.31;46.34
64711;BME280;51139;45.626;6.850;2023-04-23T10:38:49;81444.59;;;11.64;45.08
64711;BME280;51139;45.626;6.850;2023-04-23T10:41:16;81444.31;;;12.39;46.83
64711;BME280;51139;45.626;6.850;2023-04-23T10:43:46;81444.31;;;12.63;49.22
64711;BME280;51139;45.626;6.850;2023-04-23T10:46:28;81436.44;;;12.65;50.43
64711;BME280;51139;45.626;6.850;2023-04-23T10:49:10;81437.16;;;12.65;46.34
64711;BME280;51139;45.626;6.850;2023-04-23T10:51:39;81449.66;;;12.05;44.31
64711;BME280;51139;45.626;6.850;2023-04-23T10:54:07;81448.19;;;12.14;47.50
64711;BME280;51139;45.626;6.850;2023-04-23T10:56:34;81440.22;;;10.70;47.93
64711;BME280;51139;45.626;6.850;2023-04-23T10:59:01;81442.78;;;10.79;55.02
64711;BME280;51139;45.626;6.850;2023-04-23T11:01:29;81443.31;;;11.31;53.88
64711;BME280;51139;45.626;6.850;2023-04-23T11:03:55;81438.25;;;12.03;49.84
64711;BME280;51139;45.626;6.850;2023-04-23T11:06:49;81431.41;;;12.00;54.45
64711;BME280;51139;45.626;6.850;2023-04-23T11:12:00;81423.19;;;12.53;48.71
64711;BME280;51139;45.626;6.850;2023-04-23T11:14:49;81421.66;;;12.38;50.82
64711;BME280;51139;45.626;6.850;2023-04-23T11:17:17;81425.13;;;12.52;49.00
64711;BME280;51139;45.626;6.850;2023-04-23T11:20:11;81416.56;;;12.18;48.03
64711;BME280;51139;45.626;6.850;2023-04-23T11:22:41;81408.94;;;12.13;48.75
64711;BME280;51139;45.626;6.850;2023-04-23T11:25:21;81407.13;;;12.39;48.00
64711;BME280;51139;45.626;6.850;2023-04-23T11:27:48;81408.25;;;12.24;45.73
64711;BME280;51139;45.626;6.850;2023-04-23T11:32:45;81410.47;;;12.51;48.55
64711;BME280;51139;45.626;6.850;2023-04-23T11:35:13;81414.50;;;12.64;48.16
64711;BME280;51139;45.626;6.850;2023-04-23T11:37:39;81405.69;;;12.97;47.08
64711;BME280;51139;45.626;6.850;2023-04-23T11:40:13;81404.69;;;12.67;48.93
64711;BME280;51139;45.626;6.850;2023-04-23T11:42:44;81395.91;;;12.17;47.00
64711;BME280;51139;45.626;6.850;2023-04-23T11:47:46;81396.84;;;12.33;47.23
64711;BME280;51139;45.626;6.850;2023-04-23T11:50:23;81394.75;;;12.55;47.50
64711;BME280;51139;45.626;6.850;2023-04-23T11:52:48;81397.31;;;12.53;44.70
64711;BME280;51139;45.626;6.850;2023-04-23T11:55:14;81391.41;;;12.67;46.96
64711;BME280;51139;45.626;6.850;2023-04-23T11:57:45;81392.78;;;12.92;45.54
64711;BME280;51139;45.626;6.850;2023-04-23T12:00:19;81397.38;;;12.79;45.12
64711;BME280;51139;45.626;6.850;2023-04-23T12:02:53;81391.88;;;12.51;45.77
64711;BME280;51139;45.626;6.850;2023-04-23T12:05:40;81391.06;;;12.13;46.69
64711;BME280;51139;45.626;6.850;2023-04-23T12:08:13;81399.25;;;12.05;48.53
64711;BME280;51139;45.626;6.850;2023-04-23T12:10:48;81389.84;;;11.92;46.63
64711;BME280;51139;45.626;6.850;2023-04-23T12:13:20;81396.47;;;12.03;50.40
64711;BME280;51139;45.626;6.850;2023-04-23T12:15:56;81391.25;;;11.93;50.27
64711;BME280;51139;45.626;6.850;2023-04-23T12:18:34;81393.88;;;11.81;51.56
64711;BME280;51139;45.626;6.850;2023-04-23T12:21:11;81384.25;;;11.64;55.37
64711;BME280;51139;45.626;6.850;2023-04-23T12:23:38;81381.41;;;11.84;54.46
64711;BME280;51139;45.626;6.850;2023-04-23T12:26:09;81378.81;;;12.08;50.83
64711;BME280;51139;45.626;6.850;2023-04-23T12:28:49;81373.44;;;11.72;54.55
64711;BME280;51139;45.626;6.850;2023-04-23T12:31:22;81383.56;;;12.09;49.34
64711;BME280;51139;45.626;6.850;2023-04-23T12:36:26;81387.47;;;11.51;52.90
64711;BME280;51139;45.626;6.850;2023-04-23T12:38:53;81382.19;;;10.95;54.67
64711;BME280;51139;45.626;6.850;2023-04-23T12:41:20;81377.25;;;10.58;54.82
64711;BME280;51139;45.626;6.850;2023-04-23T12:43:45;81391.78;;;11.01;59.57
64711;BME280;51139;45.626;6.850;2023-04-23T12:46:13;81383.63;;;10.87;60.85
64711;BME280;51139;45.626;6.850;2023-04-23T12:48:38;81385.13;;;10.90;58.12
64711;BME280;51139;45.626;6.850;2023-04-23T12:51:04;81377.00;;;10.98;58.88
64711;BME280;51139;45.626;6.850;2023-04-23T12:53:30;81381.22;;;10.91;57.16
64711;BME280;51139;45.626;6.850;2023-04-23T12:55:56;81375.06;;;10.76;56.65
64711;BME280;51139;45.626;6.850;2023-04-23T12:58:21;81375.06;;;10.55;56.48
64711;BME280;51139;45.626;6.850;2023-04-23T13:00:46;81372.50;;;10.67;57.45
64711;BME280;51139;45.626;6.850;2023-04-23T13:03:12;81384.72;;;10.72;57.64
64711;BME280;51139;45.626;6.850;2023-04-23T13:05:40;81374.47;;;10.56;57.15
64711;BME280;51139;45.626;6.850;2023-04-23T13:08:05;81371.66;;;10.86;57.06
64711;BME280;51139;45.626;6.850;2023-04-23T13:10:31;81369.81;;;10.45;57.19
64711;BME280;51139;45.626;6.850;2023-04-23T13:12:57;81375.44;;;9.98;57.36
64711;BME280;51139;45.626;6.850;2023-04-23T13:15:22;81379.84;;;10.15;59.07
64711;BME280;51139;45.626;6.850;2023-04-23T13:17:48;81377.63;;;10.43;57.29
64711;BME280;51139;45.626;6.850;2023-04-23T13:20:13;81380.66;;;10.92;54.55